• Join FlightAware (Why Join?)
  • Login
  • US Flag 
09:03AM EST


 

Airport Tracker/Info


-or-


 

Live Flight TrackerFlight Track Log ✈ CTL78 ✈ 17-May-2013 ✈ KBKL - KPTK

Flight Track Log - Related Links

Times and Time Zones

All times are in EDT time to prevent confusion due to time zone crossing. See the CTL78 flight status page for this flight to view local times or setup timezone preferences in your user account.

Time Position Orientation Groundspeed Altitude Reporting Facility
EDT Latitude Longitude Course Direction KTS MPH feet Rate Location/Type
10:49PM 41.5461 -81.6956 326° Northwest 142 163 1,900  Level Cleveland Center
10:50PM 41.5581 -81.7431 289° West 160 184 2,700 720 Climbing Cleveland Center
10:51PM 41.5742 -81.7989 291° West 169 194 3,300 540 Climbing Cleveland Center
10:52PM 41.5944 -81.8575 295° West 168 193 3,800 540 Climbing Cleveland Center
10:53PM 41.6144 -81.9136 296° West 166 191 4,400 540 Climbing Cleveland Center
10:54PM 41.6325 -81.9694 293° West 168 193 4,900 420 Climbing Cleveland Center
10:55PM 41.6569 -82.0339 297° West 164 189 5,400 480 Climbing Cleveland Center
10:56PM 41.6769 -82.0900 296° West 166 191 6,000 300 Climbing Cleveland Center
10:57PM 41.6908 -82.1458 288° West 165 190 6,100  Climbing Cleveland Center
10:58PM 41.7086 -82.2158 289° West 174 200 6,000  Descending Cleveland Center
11:00PM 41.7283 -82.2831 291° West 176 203 6,100  Climbing Cleveland Center
11:00PM 41.7444 -82.3253 297° West 178 205 6,000 -120 Descending Cleveland Center
11:01PM 41.7586 -82.3647 296° West 179 206 6,000 60 Level Cleveland Center
11:02PM 41.7764 -82.4208 293° West 177 204 6,100  Climbing Cleveland Center
11:03PM 41.7964 -82.4772 295° West 177 204 6,100  Level Cleveland Center
11:04PM 41.8161 -82.5333 295° West 176 203 6,100  Level Cleveland Center
11:05PM 41.8358 -82.6036 291° West 177 204 6,100 -60 Level Cleveland Center
11:06PM 41.8642 -82.6547 307° West 183 211 6,000  Descending Cleveland Center
11:07PM 41.9094 -82.6869 332° Northwest 181 208 6,100  Climbing Cleveland Center
11:08PM 41.9503 -82.7275 324° Northwest 180 207 6,100  Level Cleveland Center
11:09PM 41.9850 -82.7647 321° Northwest 178 205 6,100 -60 Level Cleveland Center
11:10PM 42.0281 -82.8056 325° Northwest 181 208 6,000 -60 Descending Cleveland Center
11:11PM 42.0711 -82.8489 323° Northwest 179 206 6,000  Level Cleveland Center
11:12PM 42.1158 -82.8953 322° Northwest 180 207 6,000  Level Cleveland Center
11:13PM 42.1547 -82.9358 322° Northwest 178 205 6,000  Level Cleveland Center
11:14PM 42.1997 -82.9797 324° Northwest 179 206 6,100  Climbing Cleveland Center
11:15PM 42.2447 -83.0206 326° Northwest 180 207 6,000 -120 Descending Cleveland Center
11:16PM 42.2856 -83.0614 324° Northwest 178 205 5,900 -420 Descending Cleveland Center
11:17PM 42.3242 -83.1022 322° Northwest 198 228 5,300 -780 Descending Cleveland Center
11:18PM 42.3689 -83.1519 321° Northwest 200 230 4,500 -660 Descending Cleveland Center
11:19PM 42.4181 -83.1989 325° Northwest 194 223 3,900 -420 Descending Cleveland Center
11:20PM 42.4628 -83.2486 321° Northwest 180 207 3,700 -300 Descending Cleveland Center
11:21PM 42.4992 -83.2867 322° Northwest 184 212 3,300 -420 Descending Cleveland Center
11:22PM 42.5378 -83.3308 320° Northwest 188 216 3,000 -540 Descending Cleveland Center
11:23PM 42.5825 -83.3833 319° Northwest 191 220 2,200 -480 Descending Cleveland Center
11:24PM 42.6231 -83.4275 321° Northwest 170 196 2,000 -300 Descending Cleveland Center
11:25PM 42.6536 -83.4600 322° Northwest 117 135 1,600 -420 Descending Cleveland Center
11:27PM 42.6656 -83.4205 67° East  Level Estimated
11:34PM 42.6656 -83.4205 140° Southeast  Level Estimated
11:35PM 42.6656 -83.4205 140° Southeast  Level Estimated